createdAt,value
2023-01-02T00:02:52.989Z,6.32
2023-01-02T00:07:44.734Z,6.25
2023-01-02T00:12:36.437Z,6.18
2023-01-02T00:17:28.296Z,6.18
2023-01-02T00:22:20.094Z,6.15
2023-01-02T00:27:11.827Z,6.07
2023-01-02T00:32:04.025Z,6.03
2023-01-02T00:36:55.750Z,6.00
2023-01-02T00:41:47.550Z,5.97
2023-01-02T00:46:39.200Z,5.89
2023-01-02T00:51:30.910Z,5.86
2023-01-02T00:56:22.518Z,5.81
2023-01-02T01:01:14.354Z,5.78
2023-01-02T01:06:08.178Z,5.76
2023-01-02T01:11:07.577Z,5.79
2023-01-02T01:16:17.013Z,5.85
2023-01-02T01:21:17.972Z,5.88
2023-01-02T01:26:12.092Z,5.93
2023-01-02T01:31:05.624Z,5.99
2023-01-02T01:36:04.545Z,6.03
2023-01-02T01:40:56.389Z,6.09
2023-01-02T01:45:48.118Z,6.14
2023-01-02T01:50:40.040Z,6.18
2023-01-02T01:55:39.351Z,6.23
2023-01-02T02:00:31.967Z,6.27
2023-01-02T02:05:27.797Z,6.31
2023-01-02T02:10:19.582Z,6.35
2023-01-02T02:15:18.012Z,6.36
2023-01-02T02:20:33.463Z,6.34
2023-01-02T02:25:48.255Z,6.31
2023-01-02T02:30:52.923Z,6.30
2023-01-02T02:36:04.356Z,6.30
2023-01-02T02:41:03.272Z,6.31
2023-01-02T02:46:25.987Z,6.29
2023-01-02T02:51:35.577Z,6.22
2023-01-02T02:56:28.748Z,6.22
2023-01-02T03:01:29.939Z,6.15
2023-01-02T03:06:40.619Z,6.13
2023-01-02T03:11:55.478Z,6.04
2023-01-02T03:16:51.223Z,5.98
2023-01-02T03:21:55.592Z,5.88
2023-01-02T03:26:52.434Z,5.77
2023-01-02T03:31:49.169Z,5.68
2023-01-02T03:36:45.554Z,5.59
2023-01-02T03:42:01.534Z,5.51
2023-01-02T03:47:18.153Z,5.41
2023-01-02T03:52:10.044Z,5.33
2023-01-02T03:57:10.270Z,5.21
2023-01-02T04:02:25.072Z,5.15
2023-01-02T04:07:33.394Z,5.12
2023-01-02T04:12:28.034Z,5.06
2023-01-02T04:17:22.882Z,5.02
2023-01-02T04:22:21.506Z,4.96
2023-01-02T04:27:19.827Z,4.93
2023-01-02T04:32:15.830Z,4.93
2023-01-02T04:37:07.542Z,4.92
2023-01-02T04:41:59.279Z,4.92
2023-01-02T04:46:50.961Z,4.87
2023-01-02T04:51:42.696Z,4.80
2023-01-02T04:56:34.321Z,4.76
2023-01-02T05:01:32.603Z,4.73
2023-01-02T05:06:24.306Z,4.74
2023-01-02T05:11:18.466Z,4.80
2023-01-02T05:16:10.745Z,4.84
2023-01-02T05:21:30.948Z,4.88
2023-01-02T05:26:22.729Z,4.88
2023-01-02T05:31:14.482Z,4.80
2023-01-02T05:36:07.854Z,4.72
2023-01-02T05:41:01.058Z,4.66
2023-01-02T05:45:52.784Z,4.62
2023-01-02T05:50:44.538Z,4.53
2023-01-02T05:55:36.082Z,4.43
2023-01-02T06:00:27.859Z,4.38
2023-01-02T06:05:19.568Z,4.30
2023-01-02T06:10:11.507Z,4.24
2023-01-02T06:15:03.666Z,4.17
2023-01-02T06:19:55.505Z,4.12
2023-01-02T06:24:47.209Z,4.08
2023-01-02T06:29:38.980Z,4.04
2023-01-02T06:34:30.913Z,3.99
2023-01-02T06:39:22.940Z,3.93
2023-01-02T06:44:15.148Z,3.86
2023-01-02T06:49:07.044Z,3.79
2023-01-02T06:53:58.798Z,3.68
2023-01-02T06:58:50.761Z,3.61
2023-01-02T07:03:42.866Z,3.64
2023-01-02T07:08:34.797Z,3.65
2023-01-02T07:13:26.525Z,3.65
2023-01-02T07:18:18.260Z,3.62
2023-01-02T07:23:09.913Z,3.62
2023-01-02T07:28:01.830Z,3.59
2023-01-02T07:32:53.727Z,3.54
2023-01-02T07:37:45.397Z,3.53
2023-01-02T07:42:37.117Z,3.52
2023-01-02T07:47:28.842Z,3.51
2023-01-02T07:52:20.593Z,3.50
2023-01-02T07:57:12.335Z,3.44
2023-01-02T08:02:04.279Z,3.45
2023-01-02T08:06:55.988Z,3.43
2023-01-02T08:11:47.825Z,3.42
2023-01-02T08:16:39.612Z,3.44
2023-01-02T08:21:31.383Z,3.48
2023-01-02T08:26:24.162Z,3.47
2023-01-02T08:31:20.288Z,3.53
2023-01-02T08:36:12.239Z,3.56
2023-01-02T08:41:04.600Z,3.58
2023-01-02T08:45:56.317Z,3.61
2023-01-02T08:50:48.184Z,3.62
2023-01-02T08:55:39.845Z,3.68
2023-01-02T09:00:31.606Z,3.75
2023-01-02T09:05:23.314Z,3.78
2023-01-02T09:10:14.995Z,3.79
2023-01-02T09:15:07.012Z,3.79
2023-01-02T09:19:58.740Z,3.84
2023-01-02T09:24:50.488Z,3.90
2023-01-02T09:29:42.166Z,3.93
2023-01-02T09:34:33.957Z,3.96
2023-01-02T09:39:31.928Z,3.96
2023-01-02T09:44:39.861Z,4.00
2023-01-02T09:49:35.309Z,4.05
2023-01-02T09:54:29.623Z,4.17
2023-01-02T09:59:41.722Z,4.36
2023-01-02T10:05:01.267Z,4.49
2023-01-02T10:10:08.924Z,4.64
2023-01-02T10:15:03.392Z,4.73
2023-01-02T10:20:03.974Z,4.72
2023-01-02T10:25:30.880Z,4.73
2023-01-02T10:30:25.494Z,4.68
2023-01-02T10:35:29.791Z,4.69
2023-01-02T10:40:21.562Z,4.74
2023-01-02T10:45:17.315Z,4.94
2023-01-02T10:50:23.032Z,5.17
2023-01-02T10:55:29.572Z,5.38
2023-01-02T11:00:27.469Z,5.77
2023-01-02T11:05:31.587Z,6.54
2023-01-02T11:10:29.330Z,7.02
2023-01-02T11:15:27.701Z,7.29
2023-01-02T11:20:25.971Z,7.59
2023-01-02T11:25:26.357Z,7.84
2023-01-02T11:30:44.147Z,8.05
2023-01-02T11:35:49.017Z,8.14
2023-01-02T11:40:52.561Z,8.32
2023-01-02T11:45:44.871Z,8.53
2023-01-02T11:50:38.636Z,8.47
2023-01-02T11:55:50.331Z,8.51
2023-01-02T12:00:44.892Z,8.49
2023-01-02T12:05:53.304Z,8.53
2023-01-02T12:10:54.498Z,8.59
2023-01-02T12:16:08.085Z,8.54
2023-01-02T12:21:18.520Z,8.54
2023-01-02T12:26:21.121Z,8.50
2023-01-02T12:31:38.728Z,8.47
2023-01-02T12:36:48.921Z,8.37
2023-01-02T12:42:01.871Z,8.33
2023-01-02T12:47:10.922Z,8.31
2023-01-02T12:52:14.519Z,8.34
2023-01-02T12:57:16.975Z,8.34
2023-01-02T13:02:51.168Z,8.33
2023-01-02T13:07:52.477Z,8.31
2023-01-02T13:12:44.479Z,8.30
2023-01-02T13:17:44.895Z,8.13
2023-01-02T13:23:02.900Z,8.03
2023-01-02T13:27:56.967Z,7.92
2023-01-02T13:32:49.140Z,7.88
2023-01-02T13:37:43.049Z,7.80
2023-01-02T13:42:55.177Z,7.75
2023-01-02T13:47:54.450Z,7.67
2023-01-02T13:53:10.796Z,7.51
2023-01-02T13:58:18.367Z,7.29
2023-01-02T14:03:25.617Z,7.14
2023-01-02T14:08:32.339Z,7.06
2023-01-02T14:13:30.068Z,6.97
2023-01-02T14:18:31.070Z,6.83
2023-01-02T14:23:33.554Z,6.75
2023-01-02T14:28:30.353Z,6.71
2023-01-02T14:33:36.387Z,6.65
2023-01-02T14:38:33.891Z,6.59
2023-01-02T14:43:36.545Z,6.58
2023-01-02T14:48:53.044Z,6.58
2023-01-02T14:53:55.858Z,6.59
2023-01-02T14:58:49.192Z,6.56
2023-01-02T15:03:46.419Z,6.54
2023-01-02T15:08:43.390Z,6.51
2023-01-02T15:14:04.204Z,6.43
2023-01-02T15:18:47.320Z,6.44
2023-01-02T15:23:44.613Z,6.42
2023-01-02T15:28:36.337Z,6.38
2023-01-02T15:33:31.851Z,6.35
2023-01-02T15:38:23.852Z,6.35
2023-01-02T15:43:35.977Z,6.33
2023-01-02T15:48:28.813Z,6.32
2023-01-02T15:53:30.797Z,6.25
2023-01-02T15:58:24.936Z,6.20
2023-01-02T16:04:02.516Z,6.18
2023-01-02T16:09:00.255Z,6.01
2023-01-02T16:14:19.304Z,5.81
2023-01-02T16:19:18.391Z,5.71
2023-01-02T16:24:11.614Z,5.59
2023-01-02T16:29:03.278Z,5.50
2023-01-02T16:34:14.275Z,5.38
2023-01-02T16:39:46.095Z,5.30
2023-01-02T16:44:37.823Z,5.22
2023-01-02T16:49:37.579Z,5.12
2023-01-02T16:54:29.242Z,5.07
2023-01-02T16:59:20.964Z,5.02
2023-01-02T17:04:13.736Z,4.96
2023-01-02T17:09:06.735Z,4.90
2023-01-02T17:13:58.417Z,4.84
2023-01-02T17:18:50.149Z,4.80
2023-01-02T17:23:41.949Z,4.70
2023-01-02T17:28:33.808Z,4.63
2023-01-02T17:33:25.533Z,4.62
2023-01-02T17:38:18.104Z,4.64
2023-01-02T17:43:09.874Z,4.65
2023-01-02T17:48:09.283Z,4.68
2023-01-02T17:53:03.092Z,4.73
2023-01-02T17:57:54.862Z,4.72
2023-01-02T18:02:46.733Z,4.66
2023-01-02T18:07:38.525Z,4.69
2023-01-02T18:12:30.187Z,4.70
2023-01-02T18:17:30.057Z,4.71
2023-01-02T18:22:28.412Z,4.64
2023-01-02T18:27:28.005Z,4.61
2023-01-02T18:32:42.636Z,4.51
2023-01-02T18:37:34.846Z,4.41
2023-01-02T18:42:29.783Z,4.33
2023-01-02T18:47:35.372Z,4.24
2023-01-02T18:52:32.000Z,4.13
2023-01-02T18:57:23.717Z,4.03
2023-01-02T19:02:45.047Z,3.91
2023-01-02T19:07:37.246Z,3.86
2023-01-02T19:12:47.120Z,3.80
2023-01-02T19:17:38.824Z,3.71
2023-01-02T19:22:34.704Z,3.63
2023-01-02T19:27:33.974Z,3.58
2023-01-02T19:32:28.927Z,3.52
2023-01-02T19:37:33.863Z,3.45
2023-01-02T19:42:28.266Z,3.38
2023-01-02T19:47:25.285Z,3.34
2023-01-02T19:52:17.883Z,3.34
2023-01-02T19:57:11.220Z,3.31
2023-01-02T20:02:03.207Z,3.27
2023-01-02T20:06:54.935Z,3.25
2023-01-02T20:12:07.710Z,3.20
2023-01-02T20:17:00.215Z,3.12
2023-01-02T20:21:51.977Z,3.11
2023-01-02T20:26:43.732Z,3.11
2023-01-02T20:31:35.576Z,3.10
2023-01-02T20:36:27.286Z,3.04
2023-01-02T20:41:19.065Z,3.03
2023-01-02T20:46:10.765Z,3.02
2023-01-02T20:51:02.657Z,3.00
2023-01-02T20:55:54.529Z,3.01
2023-01-02T21:00:46.465Z,3.01
2023-01-02T21:05:39.463Z,2.98
2023-01-02T21:10:31.233Z,3.01
2023-01-02T21:15:41.502Z,2.97
2023-01-02T21:20:33.288Z,2.86
2023-01-02T21:25:24.905Z,2.81
2023-01-02T21:30:16.685Z,2.74
2023-01-02T21:35:09.147Z,2.68
2023-01-02T21:40:01.463Z,2.58
2023-01-02T21:44:53.742Z,2.57
2023-01-02T21:49:45.803Z,2.49
2023-01-02T21:54:37.851Z,2.47
2023-01-02T21:59:29.617Z,2.43
2023-01-02T22:04:22.432Z,2.45
2023-01-02T22:09:14.134Z,2.42
2023-01-02T22:14:05.975Z,2.38
2023-01-02T22:18:57.578Z,2.33
2023-01-02T22:23:49.360Z,2.30
2023-01-02T22:28:42.926Z,2.31
2023-01-02T22:33:34.708Z,2.31
2023-01-02T22:38:26.379Z,2.31
2023-01-02T22:43:24.474Z,2.31
2023-01-02T22:48:37.240Z,2.35
2023-01-02T22:53:35.633Z,2.35
2023-01-02T22:58:27.245Z,2.31
2023-01-02T23:03:19.023Z,2.25
2023-01-02T23:08:10.714Z,2.19
2023-01-02T23:13:03.118Z,2.13
2023-01-02T23:18:13.554Z,2.07
2023-01-02T23:23:06.540Z,2.03
2023-01-02T23:27:58.358Z,2.03
2023-01-02T23:32:50.097Z,2.02
2023-01-02T23:37:41.834Z,2.07
2023-01-02T23:42:33.492Z,2.07
2023-01-02T23:47:25.122Z,2.04
2023-01-02T23:52:16.691Z,2.01
2023-01-02T23:57:08.503Z,1.99
